Terminal Aerodrome Forecast
Issued by NWS

Home | Current Version | Previous Version | Text Only | Print | Product List | Glossary On
Versions: 1 2 3 4 5 6 7 8 9 10 11 12 13 14 15 16 17 18 19 20 21
000
FTUS41 KCAR 011738
TAFFVE
TAF
KFVE 011738Z 0118/0218 23008KT P6SM -SHRA SCT025 BKN050
      TEMPO 0118/0120 27015G25KT 2SM -TSRA BKN025CB
     FM020000 26005KT P6SM BKN250
     FM020900 00000KT P6SM SCT200
     FM021600 24006KT P6SM BKN250=

USA.gov is the U.S. government's official web portal to all federal, state and local government web resources and services.